createdAt,value
2018-12-04T00:00:54.460Z,49.43
2018-12-04T00:03:25.846Z,54.97
2018-12-04T00:05:56.011Z,51.00
2018-12-04T00:08:27.092Z,54.13
2018-12-04T00:10:58.081Z,55.13
2018-12-04T00:13:28.572Z,53.63
2018-12-04T00:15:59.058Z,54.50
2018-12-04T00:18:29.819Z,50.50
2018-12-04T00:21:02.540Z,52.37
2018-12-04T00:23:33.327Z,55.90
2018-12-04T00:26:04.245Z,52.47
2018-12-04T00:28:34.696Z,55.33
2018-12-04T00:31:04.553Z,54.10
2018-12-04T00:33:34.876Z,53.67
2018-12-04T00:36:06.093Z,56.00
2018-12-04T00:38:36.405Z,54.43
2018-12-04T00:41:07.045Z,55.40
2018-12-04T00:43:38.051Z,54.40
2018-12-04T00:46:09.909Z,56.23
2018-12-04T00:48:40.473Z,55.13
2018-12-04T00:51:10.794Z,56.70
2018-12-04T00:53:40.808Z,55.73
2018-12-04T00:56:11.136Z,55.43
2018-12-04T00:58:41.800Z,53.80
2018-12-04T01:01:11.820Z,52.43
2018-12-04T01:03:41.983Z,55.80
2018-12-04T01:06:12.571Z,55.80
2018-12-04T01:08:42.791Z,52.93
2018-12-04T01:11:13.076Z,54.53
2018-12-04T01:13:43.193Z,55.97
2018-12-04T01:16:13.421Z,52.40
2018-12-04T01:18:43.955Z,54.17
2018-12-04T01:21:14.182Z,53.47
2018-12-04T01:23:45.015Z,51.60
2018-12-04T01:26:30.805Z,52.43
2018-12-04T01:29:01.754Z,51.93
2018-12-04T01:31:32.512Z,49.83
2018-12-04T01:34:02.846Z,45.13
2018-12-04T01:36:32.703Z,51.57
2018-12-04T01:39:04.105Z,44.47
2018-12-04T01:41:34.402Z,51.83
2018-12-04T01:44:04.669Z,51.43
2018-12-04T01:46:34.594Z,53.00
2018-12-04T01:49:05.013Z,40.97
2018-12-04T01:51:35.283Z,45.47
2018-12-04T01:54:05.443Z,49.63
2018-12-04T01:56:35.669Z,49.77
2018-12-04T01:59:06.068Z,53.47
2018-12-04T02:01:38.090Z,52.87
2018-12-04T02:04:08.429Z,51.63
2018-12-04T02:06:38.430Z,52.97
2018-12-04T02:09:08.984Z,51.43
2018-12-04T02:11:39.136Z,53.87
2018-12-04T02:14:09.449Z,52.83
2018-12-04T02:16:39.505Z,50.53
2018-12-04T02:19:09.724Z,52.67
2018-12-04T02:21:40.164Z,52.63
2018-12-04T02:24:10.497Z,53.37
2018-12-04T02:26:40.510Z,55.93
2018-12-04T02:29:11.625Z,52.90
2018-12-04T02:31:42.178Z,40.70
2018-12-04T02:34:12.452Z,57.03
2018-12-04T02:36:42.638Z,51.87
2018-12-04T02:39:12.775Z,53.27
2018-12-04T02:41:43.087Z,56.20
2018-12-04T02:44:13.173Z,55.43
2018-12-04T02:46:43.155Z,53.73
2018-12-04T02:49:13.833Z,55.10
2018-12-04T02:51:43.967Z,59.17
2018-12-04T02:54:16.827Z,54.73
2018-12-04T02:56:47.066Z,54.23
2018-12-04T02:59:16.995Z,49.87
2018-12-04T03:01:47.624Z,55.90
2018-12-04T03:04:17.455Z,57.27
2018-12-04T03:06:48.133Z,52.80
2018-12-04T03:09:18.478Z,56.10
2018-12-04T03:11:48.709Z,56.13
2018-12-04T03:14:18.625Z,58.23
2018-12-04T03:16:49.013Z,57.70
2018-12-04T03:19:18.864Z,58.60
2018-12-04T03:21:48.694Z,59.63
2018-12-04T03:24:18.665Z,58.50
2018-12-04T03:26:48.947Z,56.80
2018-12-04T03:29:19.453Z,60.23
2018-12-04T03:31:49.393Z,60.10
2018-12-04T03:34:19.430Z,60.40
2018-12-04T03:36:49.470Z,56.67
2018-12-04T03:39:19.423Z,53.47
2018-12-04T03:41:49.628Z,62.40
2018-12-04T03:44:19.691Z,53.93
2018-12-04T03:46:49.736Z,56.47
2018-12-04T03:49:19.632Z,60.67
2018-12-04T03:51:49.666Z,61.50
2018-12-04T03:54:19.906Z,59.60
2018-12-04T03:56:50.001Z,61.97
2018-12-04T03:59:20.343Z,60.70
2018-12-04T04:01:50.743Z,57.27
2018-12-04T04:04:21.623Z,62.50
2018-12-04T04:06:51.893Z,61.50
2018-12-04T04:09:22.054Z,58.27
2018-12-04T04:11:52.082Z,61.00
2018-12-04T04:14:22.516Z,62.00
2018-12-04T04:16:52.631Z,61.07
2018-12-04T04:19:23.523Z,65.73
2018-12-04T04:21:53.857Z,59.93
2018-12-04T04:24:24.312Z,65.67
2018-12-04T04:26:54.482Z,61.87
2018-12-04T04:29:24.324Z,67.00
2018-12-04T04:31:54.496Z,64.93
2018-12-04T04:34:25.457Z,70.87
2018-12-04T04:36:56.194Z,70.23
2018-12-04T04:39:26.167Z,66.37
2018-12-04T04:41:55.949Z,70.63
2018-12-04T04:44:25.913Z,70.70
2018-12-04T04:46:55.892Z,68.17
2018-12-04T04:49:26.137Z,70.07
2018-12-04T04:51:55.985Z,78.47
2018-12-04T04:54:28.145Z,84.10
2018-12-04T04:56:59.151Z,84.20
2018-12-04T04:59:30.114Z,80.50
2018-12-04T05:01:59.983Z,74.13
2018-12-04T05:04:30.880Z,75.83
2018-12-04T05:07:01.827Z,73.53
2018-12-04T05:09:31.867Z,74.27
2018-12-04T05:12:02.134Z,73.83
2018-12-04T05:14:33.595Z,72.83
2018-12-04T05:17:04.050Z,76.47
2018-12-04T05:19:34.329Z,70.73
2018-12-04T05:22:04.909Z,70.60
2018-12-04T05:24:34.670Z,58.53
2018-12-04T05:27:04.709Z,71.70
2018-12-04T05:29:34.871Z,69.70
2018-12-04T05:32:05.601Z,54.70
2018-12-04T05:34:36.443Z,69.27
2018-12-04T05:37:08.496Z,68.27
2018-12-04T05:39:40.142Z,72.00
2018-12-04T05:42:10.093Z,65.03
2018-12-04T05:44:41.391Z,73.03
2018-12-04T05:47:12.033Z,74.67
2018-12-04T05:49:43.326Z,73.10
2018-12-04T05:52:13.950Z,72.20
2018-12-04T05:54:44.969Z,65.93
2018-12-04T05:57:15.264Z,73.33
2018-12-04T05:59:45.316Z,63.80
2018-12-04T06:02:15.853Z,76.00
2018-12-04T06:04:46.822Z,69.73
2018-12-04T06:07:16.930Z,75.83
2018-12-04T06:09:47.251Z,65.90
2018-12-04T06:12:17.846Z,68.33
2018-12-04T06:14:48.167Z,61.80
2018-12-04T06:17:18.707Z,68.27
2018-12-04T06:19:49.144Z,74.67
2018-12-04T06:22:19.932Z,72.83
2018-12-04T06:24:50.442Z,73.23
2018-12-04T06:27:20.772Z,70.57
2018-12-04T06:29:51.192Z,70.33
2018-12-04T06:32:22.045Z,65.20
2018-12-04T06:34:52.979Z,73.70
2018-12-04T06:37:23.381Z,67.37
2018-12-04T06:39:54.597Z,68.37
2018-12-04T06:42:25.049Z,66.97
2018-12-04T06:44:55.601Z,66.77
2018-12-04T06:47:25.994Z,67.70
2018-12-04T06:49:56.015Z,71.13
2018-12-04T06:52:25.972Z,65.23
2018-12-04T06:54:55.985Z,71.07
2018-12-04T06:57:27.236Z,71.13
2018-12-04T06:59:57.264Z,71.67
2018-12-04T07:02:27.210Z,62.10
2018-12-04T07:04:57.375Z,67.53
2018-12-04T07:07:27.325Z,72.77
2018-12-04T07:09:57.995Z,64.83
2018-12-04T07:12:28.043Z,68.73
2018-12-04T07:14:57.952Z,67.07
2018-12-04T07:17:27.981Z,68.70
2018-12-04T07:19:57.883Z,71.87
2018-12-04T07:22:27.695Z,71.73
2018-12-04T07:24:58.176Z,58.97
2018-12-04T07:27:28.237Z,64.27
2018-12-04T07:29:58.324Z,69.23
2018-12-04T07:32:29.039Z,71.63
2018-12-04T07:34:59.945Z,72.93
2018-12-04T07:37:30.301Z,70.20
2018-12-04T07:40:00.550Z,74.03
2018-12-04T07:42:30.832Z,70.90
2018-12-04T07:45:01.638Z,69.73
2018-12-04T07:47:32.529Z,70.47
2018-12-04T07:50:03.007Z,69.47
2018-12-04T07:52:33.486Z,65.40
2018-12-04T07:55:03.822Z,70.10
2018-12-04T07:57:34.576Z,71.73
2018-12-04T08:00:06.107Z,62.77
2018-12-04T08:02:36.541Z,70.20
2018-12-04T08:05:07.268Z,65.07
2018-12-04T08:07:37.897Z,70.13
2018-12-04T08:10:08.740Z,70.03
2018-12-04T08:12:39.172Z,68.23
2018-12-04T08:15:09.564Z,73.00
2018-12-04T08:17:40.648Z,70.43
2018-12-04T08:20:11.438Z,70.67
2018-12-04T08:22:42.065Z,71.87
2018-12-04T08:25:13.052Z,68.33
2018-12-04T08:27:43.736Z,65.23
2018-12-04T08:30:14.960Z,68.43
2018-12-04T08:32:45.365Z,64.77
2018-12-04T08:35:21.982Z,69.97
2018-12-04T08:37:52.438Z,65.87
2018-12-04T08:40:23.248Z,60.90
2018-12-04T08:42:53.481Z,66.63
2018-12-04T08:45:24.387Z,66.47
2018-12-04T08:47:55.187Z,68.30
2018-12-04T08:50:26.018Z,60.87
2018-12-04T08:52:57.297Z,61.53
2018-12-04T08:55:29.000Z,69.77
2018-12-04T08:57:59.441Z,67.23
2018-12-04T09:00:30.379Z,66.13
2018-12-04T09:03:00.473Z,64.77
2018-12-04T09:05:31.018Z,64.40
2018-12-04T09:08:01.360Z,71.70
2018-12-04T09:10:31.620Z,66.87
2018-12-04T09:13:02.780Z,66.87
2018-12-04T09:15:33.137Z,68.40
2018-12-04T09:18:03.682Z,68.20
2018-12-04T09:20:34.958Z,68.03
2018-12-04T09:23:05.486Z,70.90
2018-12-04T09:25:35.990Z,75.33
2018-12-04T09:28:07.125Z,71.87
2018-12-04T09:30:38.578Z,68.60
2018-12-04T09:33:09.118Z,71.97
2018-12-04T09:35:40.205Z,70.83
2018-12-04T09:38:10.575Z,68.93
2018-12-04T09:40:41.544Z,69.30
2018-12-04T09:43:12.082Z,73.13
2018-12-04T09:45:42.270Z,70.73
2018-12-04T09:48:12.492Z,73.07
2018-12-04T09:50:43.511Z,74.23
2018-12-04T09:53:13.552Z,72.30
2018-12-04T09:55:43.863Z,74.90
2018-12-04T09:58:14.644Z,69.83
2018-12-04T10:00:44.812Z,71.90
2018-12-04T10:03:15.240Z,77.03
2018-12-04T10:05:45.615Z,72.50
2018-12-04T10:08:16.157Z,71.10
2018-12-04T10:10:51.940Z,70.00
2018-12-04T10:13:22.063Z,68.93
2018-12-04T10:15:52.374Z,70.07
2018-12-04T10:18:23.831Z,73.33
2018-12-04T10:20:54.749Z,67.37
2018-12-04T10:23:25.278Z,73.87
2018-12-04T10:25:56.263Z,72.13
2018-12-04T10:28:27.143Z,77.50
2018-12-04T10:31:02.979Z,76.07
2018-12-04T10:33:33.123Z,77.33
2018-12-04T10:36:03.094Z,75.37
2018-12-04T10:38:33.595Z,75.67
2018-12-04T10:41:04.848Z,71.00
2018-12-04T10:43:35.544Z,77.63
2018-12-04T10:46:05.490Z,75.50
2018-12-04T10:48:35.600Z,75.77
2018-12-04T10:51:06.410Z,71.30
2018-12-04T10:53:36.650Z,74.40
2018-12-04T10:56:06.972Z,76.00
2018-12-04T10:58:37.792Z,74.07
2018-12-04T11:01:13.833Z,81.60
2018-12-04T11:03:44.073Z,71.67
2018-12-04T11:06:14.257Z,71.40
2018-12-04T11:08:44.917Z,72.10
2018-12-04T11:11:15.294Z,69.17
2018-12-04T11:13:46.078Z,65.00
2018-12-04T11:16:16.332Z,69.13
2018-12-04T11:18:46.717Z,63.43
2018-12-04T11:21:17.032Z,59.87
2018-12-04T11:23:47.091Z,62.23
2018-12-04T11:26:17.688Z,61.03
2018-12-04T11:28:47.841Z,53.53
2018-12-04T11:31:18.972Z,58.73
2018-12-04T11:33:49.926Z,56.90
2018-12-04T11:36:20.384Z,57.37
2018-12-04T11:38:50.519Z,58.23
2018-12-04T11:41:20.847Z,59.77
2018-12-04T11:43:51.528Z,59.10
2018-12-04T11:46:22.788Z,60.17
2018-12-04T11:48:53.727Z,58.97
2018-12-04T11:51:25.956Z,62.43
2018-12-04T11:53:56.866Z,57.37
2018-12-04T11:56:27.418Z,61.47
2018-12-04T11:58:58.424Z,62.87
2018-12-04T12:01:30.992Z,70.43
2018-12-04T12:04:02.071Z,65.60
2018-12-04T12:06:32.712Z,68.80
2018-12-04T12:09:04.218Z,67.90
2018-12-04T12:11:35.695Z,75.43
2018-12-04T12:14:06.482Z,76.97
2018-12-04T12:16:36.566Z,77.30
2018-12-04T12:19:07.187Z,80.87
2018-12-04T12:21:37.369Z,83.40
2018-12-04T12:24:07.583Z,81.57
2018-12-04T12:26:37.704Z,74.50
2018-12-04T12:29:08.485Z,89.20
2018-12-04T12:31:39.131Z,73.57
2018-12-04T12:34:09.413Z,86.93
2018-12-04T12:36:39.963Z,81.27
2018-12-04T12:39:10.036Z,79.07
2018-12-04T12:41:41.989Z,92.67
2018-12-04T12:44:12.804Z,86.50
2018-12-04T12:46:43.236Z,74.43
2018-12-04T12:49:14.006Z,69.87
2018-12-04T12:51:48.473Z,61.80
2018-12-04T12:54:18.937Z,63.97
2018-12-04T12:56:49.184Z,64.10
2018-12-04T12:59:19.506Z,61.30
2018-12-04T13:01:50.867Z,55.20
2018-12-04T13:04:21.393Z,63.37
2018-12-04T13:06:51.682Z,63.27
2018-12-04T13:09:22.045Z,63.93
2018-12-04T13:11:52.925Z,69.03
2018-12-04T13:14:23.283Z,64.57
2018-12-04T13:16:53.369Z,67.53
2018-12-04T13:19:24.156Z,65.10
2018-12-04T13:21:54.361Z,66.60
2018-12-04T13:24:25.155Z,54.47
2018-12-04T13:26:55.741Z,52.77
2018-12-04T13:29:26.061Z,51.17
2018-12-04T13:31:56.709Z,46.97
2018-12-04T13:34:27.723Z,47.73
2018-12-04T13:36:58.605Z,43.63
2018-12-04T13:39:28.683Z,43.53
2018-12-04T13:41:59.980Z,41.70
2018-12-04T13:44:30.487Z,41.93
2018-12-04T13:47:01.195Z,39.67
2018-12-04T13:49:31.445Z,41.03
2018-12-04T13:52:02.454Z,43.77
2018-12-04T13:54:32.538Z,42.33
2018-12-04T13:57:02.898Z,45.77
2018-12-04T13:59:34.880Z,44.87
2018-12-04T14:02:05.142Z,44.60
2018-12-04T14:04:35.915Z,39.70
2018-12-04T14:07:06.164Z,36.60
2018-12-04T14:09:36.464Z,36.13
2018-12-04T14:12:07.219Z,31.77
2018-12-04T14:14:37.314Z,30.93
2018-12-04T14:17:07.984Z,28.67
2018-12-04T14:19:38.400Z,25.87
2018-12-04T14:22:09.063Z,21.90
2018-12-04T14:24:41.327Z,23.27
2018-12-04T14:27:12.142Z,19.30
2018-12-04T14:29:42.563Z,17.57
2018-12-04T14:32:13.572Z,13.33
2018-12-04T14:34:43.774Z,15.13
2018-12-04T14:37:14.544Z,12.57
2018-12-04T14:39:44.765Z,13.70
2018-12-04T14:42:15.046Z,11.57
2018-12-04T14:44:45.353Z,10.23
2018-12-04T14:47:16.253Z,8.00
2018-12-04T14:49:47.120Z,8.87
2018-12-04T14:52:17.974Z,7.60
2018-12-04T14:54:48.671Z,7.90
2018-12-04T14:57:18.649Z,7.17
2018-12-04T14:59:49.850Z,7.97
2018-12-04T15:02:20.793Z,6.87
2018-12-04T15:04:51.448Z,7.17
2018-12-04T15:07:21.894Z,6.27
2018-12-04T15:09:53.053Z,6.77
2018-12-04T15:12:23.133Z,7.50
2018-12-04T15:14:53.445Z,6.87
2018-12-04T15:17:23.903Z,8.93
2018-12-04T15:19:54.532Z,7.23
2018-12-04T15:22:25.725Z,8.00
2018-12-04T15:24:58.074Z,7.90
2018-12-04T15:27:28.788Z,7.97
2018-12-04T15:30:00.128Z,8.20
2018-12-04T15:32:30.693Z,12.63
2018-12-04T15:35:01.003Z,8.43
2018-12-04T15:37:32.408Z,7.33
2018-12-04T15:40:03.169Z,12.73
2018-12-04T15:42:33.797Z,9.43
2018-12-04T15:45:05.383Z,7.43
2018-12-04T15:47:36.424Z,8.80
2018-12-04T15:50:07.541Z,7.73
2018-12-04T15:52:38.474Z,7.87
2018-12-04T15:55:09.071Z,7.90
2018-12-04T15:57:39.811Z,8.30
2018-12-04T16:00:10.910Z,8.13
2018-12-04T16:02:42.604Z,8.07
2018-12-04T16:05:13.012Z,8.03
2018-12-04T16:07:43.664Z,9.13
2018-12-04T16:10:15.657Z,7.90
2018-12-04T16:12:46.015Z,8.20
2018-12-04T16:15:16.482Z,8.37
2018-12-04T16:17:46.811Z,9.50
2018-12-04T16:20:17.057Z,8.33
2018-12-04T16:22:48.530Z,9.47
2018-12-04T16:25:19.036Z,9.00
2018-12-04T16:27:49.441Z,8.50
2018-12-04T16:30:19.791Z,8.50
2018-12-04T16:32:50.912Z,8.07
2018-12-04T16:35:21.279Z,9.40
2018-12-04T16:37:51.566Z,9.20
2018-12-04T16:40:22.486Z,9.10
2018-12-04T16:42:54.401Z,9.20
2018-12-04T16:45:25.023Z,8.90
2018-12-04T16:47:55.285Z,10.77
2018-12-04T16:50:25.565Z,11.47
2018-12-04T16:52:56.461Z,16.20
2018-12-04T16:55:27.379Z,10.00
2018-12-04T16:57:57.706Z,9.23
2018-12-04T17:00:28.773Z,11.67
2018-12-04T17:02:59.013Z,9.40
2018-12-04T17:05:30.194Z,10.00
2018-12-04T17:08:00.457Z,10.47
2018-12-04T17:10:32.272Z,11.03
2018-12-04T17:13:02.851Z,9.57
2018-12-04T17:15:33.796Z,9.83
2018-12-04T17:18:05.182Z,10.17
2018-12-04T17:20:35.683Z,9.77
2018-12-04T17:23:06.644Z,8.57
2018-12-04T17:25:36.966Z,9.03
2018-12-04T17:28:08.038Z,9.33
2018-12-04T17:30:38.656Z,8.57
2018-12-04T17:33:08.749Z,9.93
2018-12-04T17:35:39.820Z,10.23
2018-12-04T17:38:10.453Z,10.53
2018-12-04T17:40:41.629Z,9.03
2018-12-04T17:43:15.814Z,10.00
2018-12-04T17:45:46.082Z,10.07
2018-12-04T17:50:53.021Z,9.13
2018-12-04T17:53:23.344Z,8.83
2018-12-04T17:55:55.004Z,8.83
2018-12-04T17:58:25.855Z,7.53
2018-12-04T18:00:57.091Z,8.97
2018-12-04T18:03:28.090Z,13.70
2018-12-04T18:05:58.807Z,11.20
2018-12-04T18:08:29.023Z,7.07
2018-12-04T18:11:01.244Z,8.83
2018-12-04T18:13:32.794Z,7.60
2018-12-04T18:16:09.050Z,7.77
2018-12-04T18:18:39.885Z,8.93
2018-12-04T18:21:13.640Z,12.60
2018-12-04T18:23:50.247Z,8.40
2018-12-04T18:26:27.022Z,7.97
2018-12-04T18:28:56.876Z,8.57
2018-12-04T18:31:28.961Z,8.50
2018-12-04T18:33:59.361Z,7.10
2018-12-04T18:36:31.996Z,9.23
2018-12-04T18:39:02.671Z,6.97
2018-12-04T18:41:35.717Z,7.30
2018-12-04T18:44:08.844Z,7.40
2018-12-04T18:46:39.997Z,7.93
2018-12-04T18:49:10.915Z,10.13
2018-12-04T18:51:42.305Z,9.80
2018-12-04T18:54:13.387Z,10.90
2018-12-04T18:56:43.975Z,11.73
2018-12-04T18:59:14.391Z,12.53
2018-12-04T19:01:44.600Z,11.37
2018-12-04T19:04:15.145Z,13.90
2018-12-04T19:06:50.758Z,13.10
2018-12-04T19:09:21.638Z,14.17
2018-12-04T19:11:51.788Z,14.10
2018-12-04T19:14:23.764Z,12.90
2018-12-04T19:16:54.886Z,13.77
2018-12-04T19:19:26.226Z,12.60
2018-12-04T19:21:56.909Z,14.67
2018-12-04T19:24:30.362Z,14.40
2018-12-04T19:27:03.266Z,16.50
2018-12-04T19:29:35.793Z,14.90
2018-12-04T19:32:08.968Z,15.40
2018-12-04T19:34:39.196Z,13.70
2018-12-04T19:37:11.365Z,15.47
2018-12-04T19:39:42.385Z,14.83
2018-12-04T19:42:12.914Z,13.73
2018-12-04T19:44:45.016Z,15.47
2018-12-04T19:47:16.923Z,13.37
2018-12-04T19:52:27.402Z,15.30
2018-12-04T19:54:59.009Z,16.47
2018-12-04T19:57:31.736Z,13.83
2018-12-04T20:00:03.805Z,15.47
2018-12-04T20:02:34.184Z,18.83
2018-12-04T20:05:04.979Z,16.63
2018-12-04T20:07:35.571Z,18.67
2018-12-04T20:10:07.748Z,18.53
2018-12-04T20:12:38.542Z,16.87
2018-12-04T20:15:09.570Z,18.97
2018-12-04T20:17:40.901Z,18.47
2018-12-04T20:20:11.533Z,19.83
2018-12-04T20:22:42.198Z,16.07
2018-12-04T20:25:14.286Z,17.13
2018-12-04T20:27:46.795Z,19.23
2018-12-04T20:30:18.396Z,16.27
2018-12-04T20:32:50.598Z,16.73
2018-12-04T20:35:22.634Z,16.73
2018-12-04T20:37:53.351Z,17.23
2018-12-04T20:40:31.169Z,16.60
2018-12-04T20:42:58.154Z,16.17
2018-12-04T20:45:30.054Z,18.33
2018-12-04T20:48:02.159Z,22.20
2018-12-04T20:50:34.166Z,15.67
2018-12-04T20:53:08.261Z,19.23
2018-12-04T20:55:39.700Z,16.37
2018-12-04T20:58:10.486Z,19.17
2018-12-04T21:00:40.966Z,20.20
2018-12-04T21:03:11.171Z,18.73
2018-12-04T21:05:42.372Z,18.93
2018-12-04T21:08:13.103Z,19.23
2018-12-04T21:10:48.657Z,23.07
2018-12-04T21:13:19.449Z,19.53
2018-12-04T21:15:50.030Z,20.43
2018-12-04T21:18:20.884Z,19.87
2018-12-04T21:23:28.339Z,19.77
2018-12-04T21:25:59.642Z,21.07
2018-12-04T21:28:31.194Z,20.30
2018-12-04T21:31:06.821Z,19.23
2018-12-04T21:33:42.539Z,19.80
2018-12-04T21:36:18.146Z,19.90
2018-12-04T21:38:53.946Z,21.07
2018-12-04T21:41:29.846Z,21.40
2018-12-04T21:44:05.636Z,20.13
2018-12-04T21:46:40.912Z,23.33
2018-12-04T21:49:11.676Z,20.63
2018-12-04T21:51:42.381Z,19.83
2018-12-04T21:54:13.415Z,19.43
2018-12-04T21:56:43.929Z,21.13
2018-12-04T21:59:15.023Z,20.57
2018-12-04T22:01:45.353Z,25.90
2018-12-04T22:04:15.625Z,17.07
2018-12-04T22:06:45.914Z,20.57
2018-12-04T22:09:16.817Z,18.27
2018-12-04T22:11:47.197Z,19.00
2018-12-04T22:14:18.959Z,17.97
2018-12-04T22:16:49.171Z,17.77
2018-12-04T22:19:19.790Z,20.20
2018-12-04T22:21:51.156Z,18.00
2018-12-04T22:24:21.999Z,17.67
2018-12-04T22:26:52.125Z,19.33
2018-12-04T22:29:22.668Z,18.77
2018-12-04T22:31:52.994Z,16.17
2018-12-04T22:34:23.044Z,15.97
2018-12-04T22:36:53.500Z,17.47
2018-12-04T22:39:24.303Z,16.77
2018-12-04T22:41:55.087Z,14.57
2018-12-04T22:44:43.450Z,15.77
2018-12-04T22:47:17.909Z,15.03
2018-12-04T22:49:48.427Z,16.67
2018-12-04T22:52:19.130Z,16.17
2018-12-04T22:54:49.432Z,14.63
2018-12-04T22:57:20.013Z,16.93
2018-12-04T22:59:50.252Z,16.77
2018-12-04T23:02:20.627Z,17.53
2018-12-04T23:04:52.824Z,16.83
2018-12-04T23:07:23.317Z,15.57
2018-12-04T23:09:53.886Z,17.77
2018-12-04T23:12:24.578Z,17.80
2018-12-04T23:14:54.613Z,17.00
2018-12-04T23:17:25.374Z,17.63
2018-12-04T23:19:55.681Z,16.90
2018-12-04T23:22:25.883Z,17.70
2018-12-04T23:24:56.207Z,18.13
2018-12-04T23:27:26.640Z,16.03
2018-12-04T23:29:56.906Z,15.97
2018-12-04T23:32:27.092Z,19.20
2018-12-04T23:34:57.341Z,16.50
2018-12-04T23:37:27.866Z,19.13
2018-12-04T23:39:58.444Z,16.73
2018-12-04T23:42:28.905Z,16.50
2018-12-04T23:44:58.911Z,17.43
2018-12-04T23:47:30.072Z,14.73
2018-12-04T23:50:00.603Z,16.37
2018-12-04T23:52:31.108Z,16.53
2018-12-04T23:55:01.755Z,16.20
2018-12-04T23:57:31.637Z,16.40
